createdAt,value
2023-05-05T00:00:40.032Z,16.49
2023-05-05T00:01:41.376Z,16.46
2023-05-05T00:02:39.135Z,16.45
2023-05-05T00:03:39.037Z,16.45
2023-05-05T00:04:38.484Z,16.44
2023-05-05T00:05:39.257Z,16.45
2023-05-05T00:06:38.959Z,16.46
2023-05-05T00:07:39.622Z,16.43
2023-05-05T00:08:38.946Z,16.42
2023-05-05T00:09:39.306Z,16.41
2023-05-05T00:10:39.157Z,16.42
2023-05-05T00:11:38.488Z,16.41
2023-05-05T00:12:38.707Z,16.40
2023-05-05T00:13:38.897Z,16.39
2023-05-05T00:14:39.184Z,16.38
2023-05-05T00:15:38.933Z,16.35
2023-05-05T00:16:39.455Z,16.33
2023-05-05T00:17:39.057Z,16.31
2023-05-05T00:18:38.710Z,16.31
2023-05-05T00:19:39.083Z,16.30
2023-05-05T00:20:38.622Z,16.29
2023-05-05T00:21:38.832Z,16.28
2023-05-05T00:22:39.236Z,16.29
2023-05-05T00:23:38.633Z,16.30
2023-05-05T00:24:39.016Z,16.29
2023-05-05T00:25:38.869Z,16.29
2023-05-05T00:26:39.221Z,16.29
2023-05-05T00:27:40.860Z,16.30
2023-05-05T00:28:38.426Z,16.29
2023-05-05T00:29:38.820Z,16.27
2023-05-05T00:30:39.421Z,16.24
2023-05-05T00:31:38.665Z,16.22
2023-05-05T00:32:39.207Z,16.18
2023-05-05T00:33:38.458Z,16.16
2023-05-05T00:34:38.834Z,16.15
2023-05-05T00:35:38.979Z,16.15
2023-05-05T00:36:38.899Z,16.15
2023-05-05T00:37:39.233Z,16.13
2023-05-05T00:38:38.619Z,16.11
2023-05-05T00:39:38.775Z,16.07
2023-05-05T00:40:38.937Z,16.04
2023-05-05T00:41:39.045Z,16.03
2023-05-05T00:42:38.491Z,16.00
2023-05-05T00:43:38.750Z,15.98
2023-05-05T00:44:38.972Z,15.98
2023-05-05T00:45:39.870Z,15.96
2023-05-05T00:46:39.272Z,15.95
2023-05-05T00:47:38.671Z,15.94
2023-05-05T00:48:38.804Z,15.91
2023-05-05T00:49:39.227Z,15.89
2023-05-05T00:50:38.876Z,15.86
2023-05-05T00:51:39.301Z,15.86
2023-05-05T00:52:38.899Z,15.86
2023-05-05T00:53:39.496Z,15.84
2023-05-05T00:54:38.532Z,15.83
2023-05-05T00:55:39.065Z,15.81
2023-05-05T00:56:38.842Z,15.80
2023-05-05T00:57:39.187Z,15.82
2023-05-05T00:58:38.759Z,15.80
2023-05-05T00:59:39.271Z,15.78
2023-05-05T01:00:39.865Z,15.78
2023-05-05T01:01:39.020Z,15.80
2023-05-05T01:02:38.936Z,15.80
2023-05-05T01:03:38.914Z,15.79
2023-05-05T01:04:39.544Z,15.76
2023-05-05T01:05:39.141Z,15.75
2023-05-05T01:06:38.821Z,15.74
2023-05-05T01:07:38.917Z,15.70
2023-05-05T01:08:39.281Z,15.68
2023-05-05T01:09:38.865Z,15.66
2023-05-05T01:10:39.634Z,15.62
2023-05-05T01:11:39.019Z,15.61
2023-05-05T01:12:38.647Z,15.60
2023-05-05T01:13:39.092Z,15.59
2023-05-05T01:14:38.589Z,15.56
2023-05-05T01:15:38.961Z,15.58
2023-05-05T01:16:39.539Z,15.55
2023-05-05T01:17:39.053Z,15.55
2023-05-05T01:18:38.598Z,15.53
2023-05-05T01:19:39.163Z,15.52
2023-05-05T01:20:38.657Z,15.50
2023-05-05T01:21:38.880Z,15.50
2023-05-05T01:22:39.238Z,15.48
2023-05-05T01:23:38.682Z,15.47
2023-05-05T01:24:39.043Z,15.46
2023-05-05T01:25:38.341Z,15.45
2023-05-05T01:26:38.716Z,15.44
2023-05-05T01:27:38.957Z,15.42
2023-05-05T01:28:39.292Z,15.40
2023-05-05T01:29:38.633Z,15.40
2023-05-05T01:30:39.350Z,15.38
2023-05-05T01:31:38.753Z,15.36
2023-05-05T01:32:39.184Z,15.35
2023-05-05T01:33:38.541Z,15.36
2023-05-05T01:34:38.845Z,15.35
2023-05-05T01:35:39.212Z,15.31
2023-05-05T01:36:38.557Z,15.27
2023-05-05T01:37:39.194Z,15.25
2023-05-05T01:38:38.721Z,15.23
2023-05-05T01:39:38.926Z,15.22
2023-05-05T01:40:38.868Z,15.17
2023-05-05T01:41:38.605Z,15.16
2023-05-05T01:42:38.909Z,15.16
2023-05-05T01:43:38.827Z,15.14
2023-05-05T01:44:38.794Z,15.17
2023-05-05T01:45:39.652Z,15.19
2023-05-05T01:46:43.781Z,15.17
2023-05-05T01:47:39.258Z,15.16
2023-05-05T01:48:40.332Z,15.18
2023-05-05T01:49:39.379Z,15.19
2023-05-05T01:50:38.986Z,15.21
2023-05-05T01:51:38.873Z,15.21
2023-05-05T01:52:39.733Z,15.21
2023-05-05T01:53:39.175Z,15.23
2023-05-05T01:54:52.772Z,15.23
2023-05-05T01:55:39.849Z,15.23
2023-05-05T01:56:39.797Z,15.25
2023-05-05T01:57:39.463Z,15.27
2023-05-05T01:58:38.853Z,15.27
2023-05-05T01:59:39.543Z,15.29
2023-05-05T02:00:39.986Z,15.30
2023-05-05T02:01:38.572Z,15.31
2023-05-05T02:02:39.104Z,15.32
2023-05-05T02:03:39.281Z,15.31
2023-05-05T02:04:38.940Z,15.32
2023-05-05T02:05:39.529Z,15.32
2023-05-05T02:06:38.646Z,15.32
2023-05-05T02:07:39.080Z,15.33
2023-05-05T02:08:38.821Z,15.33
2023-05-05T02:09:39.391Z,15.33
2023-05-05T02:10:38.837Z,15.34
2023-05-05T02:11:39.322Z,15.35
2023-05-05T02:12:38.748Z,15.36
2023-05-05T02:13:39.575Z,15.38
2023-05-05T02:14:38.827Z,15.39
2023-05-05T02:15:39.534Z,15.39
2023-05-05T02:16:39.065Z,15.39
2023-05-05T02:17:38.583Z,15.40
2023-05-05T02:18:38.936Z,15.38
2023-05-05T02:19:39.835Z,15.36
2023-05-05T02:20:39.674Z,15.37
2023-05-05T02:21:39.281Z,15.38
2023-05-05T02:22:38.564Z,15.39
2023-05-05T02:23:38.776Z,15.40
2023-05-05T02:24:39.048Z,15.40
2023-05-05T02:25:38.782Z,15.40
2023-05-05T02:26:39.289Z,15.39
2023-05-05T02:27:39.130Z,15.38
2023-05-05T02:28:38.697Z,15.39
2023-05-05T02:29:38.929Z,15.37
2023-05-05T02:30:39.543Z,15.37
2023-05-05T02:31:39.389Z,15.36
2023-05-05T02:32:39.328Z,15.38
2023-05-05T02:33:38.960Z,15.38
2023-05-05T02:35:10.342Z,15.37
2023-05-05T02:35:42.322Z,15.37
2023-05-05T02:37:10.102Z,15.38
2023-05-05T02:37:42.153Z,15.39
2023-05-05T02:38:38.306Z,15.39
2023-05-05T02:39:38.790Z,15.38
2023-05-05T02:40:39.595Z,15.37
2023-05-05T02:41:38.865Z,15.37
2023-05-05T02:42:39.012Z,15.39
2023-05-05T02:43:38.175Z,15.39
2023-05-05T02:44:38.437Z,15.40
2023-05-05T02:45:39.188Z,15.40
2023-05-05T02:46:38.783Z,15.39
2023-05-05T02:47:39.272Z,15.38
2023-05-05T02:48:39.088Z,15.38
2023-05-05T02:49:38.642Z,15.35
2023-05-05T02:50:39.393Z,15.34
2023-05-05T02:51:39.012Z,15.34
2023-05-05T02:52:38.809Z,15.34
2023-05-05T02:53:39.541Z,15.33
2023-05-05T02:54:38.911Z,15.33
2023-05-05T02:55:39.609Z,15.33
2023-05-05T02:56:39.074Z,15.33
2023-05-05T02:57:38.925Z,15.31
2023-05-05T02:58:39.654Z,15.30
2023-05-05T02:59:39.362Z,15.28
2023-05-05T03:00:40.449Z,15.29
2023-05-05T03:01:39.107Z,15.30
2023-05-05T03:02:38.990Z,15.28
2023-05-05T03:03:39.244Z,15.27
2023-05-05T03:04:38.861Z,15.27
2023-05-05T03:05:39.706Z,15.26
2023-05-05T03:06:38.858Z,15.24
2023-05-05T03:07:39.263Z,15.25
2023-05-05T03:08:38.808Z,15.26
2023-05-05T03:09:39.414Z,15.23
2023-05-05T03:10:38.897Z,15.22
2023-05-05T03:11:39.434Z,15.25
2023-05-05T03:12:39.430Z,15.26
2023-05-05T03:13:39.209Z,15.26
2023-05-05T03:14:38.672Z,15.27
2023-05-05T03:15:39.652Z,15.24
2023-05-05T03:16:39.166Z,15.21
2023-05-05T03:17:39.173Z,15.21
2023-05-05T03:18:38.534Z,15.22
2023-05-05T03:19:38.762Z,15.20
2023-05-05T03:20:39.100Z,15.19
2023-05-05T03:21:38.682Z,15.21
2023-05-05T03:22:39.053Z,15.22
2023-05-05T03:23:38.731Z,15.22
2023-05-05T03:24:38.950Z,15.21
2023-05-05T03:25:39.498Z,15.20
2023-05-05T03:26:39.059Z,15.20
2023-05-05T03:27:38.677Z,15.21
2023-05-05T03:28:38.819Z,15.19
2023-05-05T03:29:38.776Z,15.20
2023-05-05T03:30:39.197Z,15.20
2023-05-05T03:31:38.521Z,15.22
2023-05-05T03:32:38.993Z,15.22
2023-05-05T03:33:38.693Z,15.23
2023-05-05T03:34:39.008Z,15.24
2023-05-05T03:35:38.856Z,15.26
2023-05-05T03:36:39.220Z,15.27
2023-05-05T03:37:38.589Z,15.28
2023-05-05T03:38:39.047Z,15.27
2023-05-05T03:39:38.422Z,15.26
2023-05-05T03:40:58.316Z,15.23
2023-05-05T03:41:38.601Z,15.22
2023-05-05T03:42:39.236Z,15.21
2023-05-05T03:43:38.814Z,15.20
2023-05-05T03:44:39.325Z,15.18
2023-05-05T03:45:39.291Z,15.15
2023-05-05T03:46:38.977Z,15.16
2023-05-05T03:47:38.558Z,15.14
2023-05-05T03:48:38.914Z,15.11
2023-05-05T03:49:39.217Z,15.09
2023-05-05T03:50:39.138Z,15.05
2023-05-05T03:51:38.419Z,15.02
2023-05-05T03:52:38.553Z,15.00
2023-05-05T03:53:39.001Z,14.98
2023-05-05T03:54:38.674Z,14.97
2023-05-05T03:55:39.232Z,14.95
2023-05-05T03:56:39.062Z,14.94
2023-05-05T03:57:38.382Z,14.94
2023-05-05T03:58:39.069Z,14.92
2023-05-05T03:59:38.684Z,14.92
2023-05-05T04:00:40.362Z,14.89
2023-05-05T04:01:39.112Z,14.88
2023-05-05T04:02:39.147Z,14.87
2023-05-05T04:03:38.912Z,14.85
2023-05-05T04:04:38.460Z,14.83
2023-05-05T04:05:44.112Z,14.81
2023-05-05T04:06:38.768Z,14.81
2023-05-05T04:07:39.007Z,14.81
2023-05-05T04:08:38.380Z,14.80
2023-05-05T04:09:38.720Z,14.81
2023-05-05T04:10:39.310Z,14.82
2023-05-05T04:11:46.780Z,14.82
2023-05-05T04:12:39.492Z,14.83
2023-05-05T04:13:39.407Z,14.83
2023-05-05T04:14:39.333Z,14.84
2023-05-05T04:15:39.155Z,14.83
2023-05-05T04:16:39.065Z,14.84
2023-05-05T04:17:38.480Z,14.84
2023-05-05T04:18:39.101Z,14.84
2023-05-05T04:19:38.333Z,14.85
2023-05-05T04:20:39.074Z,14.85
2023-05-05T04:21:38.485Z,14.85
2023-05-05T04:22:38.853Z,14.85
2023-05-05T04:23:39.357Z,14.85
2023-05-05T04:24:38.991Z,14.86
2023-05-05T04:25:38.937Z,14.87
2023-05-05T04:26:39.195Z,14.86
2023-05-05T04:27:38.715Z,14.89
2023-05-05T04:28:39.012Z,14.89
2023-05-05T04:29:52.596Z,14.89
2023-05-05T04:30:39.454Z,14.90
2023-05-05T04:31:38.866Z,14.90
2023-05-05T04:32:39.310Z,14.91
2023-05-05T04:33:38.924Z,14.92
2023-05-05T04:34:39.346Z,14.93
2023-05-05T04:35:38.988Z,14.93
2023-05-05T04:36:38.617Z,14.92
2023-05-05T04:37:39.045Z,14.90
2023-05-05T04:38:39.021Z,14.91
2023-05-05T04:39:44.100Z,14.90
2023-05-05T04:40:38.861Z,14.90
2023-05-05T04:41:58.683Z,14.89
2023-05-05T04:42:39.274Z,14.90
2023-05-05T04:43:39.136Z,14.89
2023-05-05T04:44:38.723Z,14.90
2023-05-05T04:45:39.632Z,14.91
2023-05-05T04:46:39.390Z,14.90
2023-05-05T04:47:38.945Z,14.89
2023-05-05T04:48:38.767Z,14.90
2023-05-05T04:49:44.661Z,14.89
2023-05-05T04:50:39.495Z,14.88
2023-05-05T04:51:39.359Z,14.88
2023-05-05T04:52:39.433Z,14.88
2023-05-05T04:53:47.100Z,14.88
2023-05-05T04:54:39.156Z,14.89
2023-05-05T04:55:39.295Z,14.90
2023-05-05T04:56:39.356Z,14.90
2023-05-05T04:57:39.531Z,14.90
2023-05-05T04:58:39.150Z,14.90
2023-05-05T04:59:40.878Z,14.92
2023-05-05T05:00:40.437Z,14.91
2023-05-05T05:02:10.852Z,14.92
2023-05-05T05:02:43.821Z,14.92
2023-05-05T05:03:39.832Z,14.93
2023-05-05T05:04:39.259Z,14.92
2023-05-05T05:05:38.771Z,14.93
2023-05-05T05:06:39.367Z,14.95
2023-05-05T05:07:39.215Z,14.97
2023-05-05T05:08:38.801Z,14.97
2023-05-05T05:09:39.551Z,14.96
2023-05-05T05:10:39.331Z,14.97
2023-05-05T05:11:39.163Z,14.94
2023-05-05T05:12:38.740Z,14.95
2023-05-05T05:13:39.284Z,14.96
2023-05-05T05:14:38.967Z,14.94
2023-05-05T05:15:40.281Z,14.94
2023-05-05T05:16:39.007Z,14.95
2023-05-05T05:17:39.203Z,14.95
2023-05-05T05:18:38.971Z,14.95
2023-05-05T05:19:39.139Z,14.96
2023-05-05T05:20:39.188Z,14.96
2023-05-05T05:21:39.101Z,14.96
2023-05-05T05:22:39.339Z,14.97
2023-05-05T05:23:38.698Z,15.00
2023-05-05T05:24:39.394Z,15.01
2023-05-05T05:25:39.450Z,15.02
2023-05-05T05:26:39.192Z,15.04
2023-05-05T05:27:39.086Z,15.06
2023-05-05T05:28:38.986Z,15.07
2023-05-05T05:29:38.940Z,15.09
2023-05-05T05:30:39.880Z,15.10
2023-05-05T05:31:39.737Z,15.12
2023-05-05T05:32:39.614Z,15.15
2023-05-05T05:33:39.224Z,15.17
2023-05-05T05:34:38.913Z,15.21
2023-05-05T05:35:39.674Z,15.24
2023-05-05T05:36:39.364Z,15.27
2023-05-05T05:37:39.104Z,15.30
2023-05-05T05:38:39.150Z,15.31
2023-05-05T05:39:40.670Z,15.33
2023-05-05T05:40:40.092Z,15.35
2023-05-05T05:41:38.699Z,15.36
2023-05-05T05:42:39.015Z,15.39
2023-05-05T05:43:38.682Z,15.42
2023-05-05T05:44:39.283Z,15.45
2023-05-05T05:45:39.135Z,15.48
2023-05-05T05:46:39.061Z,15.49
2023-05-05T05:47:39.069Z,15.5
2023-05-05T05:48:38.811Z,15.5
2023-05-05T05:49:39.885Z,15.50
2023-05-05T05:50:39.679Z,15.51
2023-05-05T05:51:39.487Z,15.53
2023-05-05T05:52:39.388Z,15.56
2023-05-05T05:53:39.076Z,15.58
2023-05-05T05:54:38.702Z,15.58
2023-05-05T05:55:39.768Z,15.59
2023-05-05T05:56:39.773Z,15.59
2023-05-05T05:57:39.759Z,15.60
2023-05-05T05:58:39.335Z,15.60
2023-05-05T05:59:39.154Z,15.60
2023-05-05T06:00:39.938Z,15.59
2023-05-05T06:01:39.716Z,15.59
2023-05-05T06:02:39.826Z,15.58
2023-05-05T06:03:40.106Z,15.59
2023-05-05T06:04:38.932Z,15.60
2023-05-05T06:05:38.999Z,15.62
2023-05-05T06:06:38.607Z,15.64
2023-05-05T06:07:39.015Z,15.66
2023-05-05T06:08:40.548Z,15.66
2023-05-05T06:09:39.535Z,15.65
2023-05-05T06:10:43.536Z,15.65
2023-05-05T06:11:39.373Z,15.66
2023-05-05T06:12:39.210Z,15.67
2023-05-05T06:14:39.021Z,15.67
2023-05-05T06:15:39.630Z,15.69
2023-05-05T06:16:40.191Z,15.71
2023-05-05T06:17:39.345Z,15.74
2023-05-05T06:18:39.607Z,15.78
2023-05-05T06:19:39.533Z,15.81
2023-05-05T06:20:39.893Z,15.82
2023-05-05T06:21:40.647Z,15.84
2023-05-05T06:22:40.142Z,15.87
2023-05-05T06:23:39.697Z,15.89
2023-05-05T06:24:39.926Z,15.92
2023-05-05T06:25:40.338Z,15.94
2023-05-05T06:26:39.790Z,15.97
2023-05-05T06:27:39.882Z,15.99
2023-05-05T06:28:40.160Z,16.02
2023-05-05T06:29:39.761Z,16.04
2023-05-05T06:30:40.224Z,16.08
2023-05-05T06:31:39.449Z,16.11
2023-05-05T06:32:39.965Z,16.15
2023-05-05T06:33:39.293Z,16.17
2023-05-05T06:34:39.936Z,16.20
2023-05-05T06:35:40.127Z,16.23
2023-05-05T06:36:44.695Z,16.25
2023-05-05T06:37:40.240Z,16.29
2023-05-05T06:38:44.449Z,16.32
2023-05-05T06:39:39.816Z,16.35
2023-05-05T06:40:40.610Z,16.37
2023-05-05T06:41:40.461Z,16.40
2023-05-05T06:42:40.221Z,16.42
2023-05-05T06:43:39.905Z,16.44
2023-05-05T06:44:40.581Z,16.46
2023-05-05T06:45:41.942Z,16.5
2023-05-05T06:46:40.308Z,16.52
2023-05-05T06:47:40.439Z,16.55
2023-05-05T06:48:54.523Z,16.59
2023-05-05T06:49:40.805Z,16.63
2023-05-05T06:50:41.137Z,16.64
2023-05-05T06:51:42.728Z,16.65
2023-05-05T06:52:41.354Z,16.65
2023-05-05T06:53:40.742Z,16.67
2023-05-05T06:54:41.287Z,16.68
2023-05-05T06:55:40.791Z,16.70
2023-05-05T06:56:41.217Z,16.71
2023-05-05T06:57:40.886Z,16.73
2023-05-05T06:58:41.127Z,16.75
2023-05-05T06:59:40.750Z,16.78
2023-05-05T07:00:55.761Z,16.79
2023-05-05T07:01:41.162Z,16.82
2023-05-05T07:03:00.011Z,16.85
2023-05-05T07:03:40.931Z,16.89
2023-05-05T07:04:41.064Z,16.92
2023-05-05T07:05:40.625Z,16.95
2023-05-05T07:06:40.807Z,16.97
2023-05-05T07:07:40.732Z,17
2023-05-05T07:08:41.433Z,17.00
2023-05-05T07:09:40.649Z,17.00
2023-05-05T07:10:41.114Z,17.01
2023-05-05T07:11:40.514Z,17.04
2023-05-05T07:12:40.776Z,17.06
2023-05-05T07:13:41.788Z,17.06
2023-05-05T07:14:41.815Z,17.08
2023-05-05T07:15:45.504Z,17.10
2023-05-05T07:16:40.983Z,17.12
2023-05-05T07:17:41.047Z,17.13
2023-05-05T07:18:48.794Z,17.15
2023-05-05T07:19:41.659Z,17.18
2023-05-05T07:20:46.987Z,17.20
2023-05-05T07:21:40.756Z,17.22
2023-05-05T07:22:41.088Z,17.23
2023-05-05T07:23:40.672Z,17.26
2023-05-05T07:24:49.733Z,17.29
2023-05-05T07:25:40.914Z,17.32
2023-05-05T07:26:41.448Z,17.32
2023-05-05T07:27:41.004Z,17.33
2023-05-05T07:28:40.447Z,17.33
2023-05-05T07:29:40.682Z,17.33
2023-05-05T07:30:42.404Z,17.34
2023-05-05T07:31:41.291Z,17.35
2023-05-05T07:32:55.363Z,17.38
2023-05-05T07:33:41.037Z,17.43
2023-05-05T07:34:40.807Z,17.5
2023-05-05T07:35:41.655Z,17.53
2023-05-05T07:36:40.839Z,17.53
2023-05-05T07:37:41.128Z,17.53
2023-05-05T07:38:40.477Z,17.45
2023-05-05T07:39:40.911Z,17.39
2023-05-05T07:40:41.685Z,17.41
2023-05-05T07:41:40.587Z,17.45
2023-05-05T07:42:41.221Z,17.49
2023-05-05T07:43:42.284Z,17.50
2023-05-05T07:44:41.254Z,17.54
2023-05-05T07:45:41.424Z,17.58
2023-05-05T07:46:41.223Z,17.60
2023-05-05T07:47:41.207Z,17.61
2023-05-05T07:48:40.740Z,17.62
2023-05-05T07:49:41.232Z,17.65
2023-05-05T07:50:41.091Z,17.63
2023-05-05T07:51:40.910Z,17.56
2023-05-05T07:53:13.833Z,17.59
2023-05-05T07:53:42.050Z,17.62
2023-05-05T07:54:40.801Z,17.62
2023-05-05T07:55:41.930Z,17.63
2023-05-05T07:56:41.504Z,17.67
2023-05-05T07:57:41.408Z,17.73
2023-05-05T07:58:41.231Z,17.77
2023-05-05T07:59:41.504Z,17.78
2023-05-05T08:01:14.350Z,17.78
2023-05-05T08:01:47.489Z,17.82
2023-05-05T08:02:41.581Z,17.90
2023-05-05T08:03:41.703Z,17.97
2023-05-05T08:04:41.211Z,18.02
2023-05-05T08:05:40.709Z,18.04
2023-05-05T08:06:41.343Z,18.04
2023-05-05T08:07:40.917Z,18.02
2023-05-05T08:08:41.348Z,18.02
2023-05-05T08:09:40.615Z,18.04
2023-05-05T08:10:41.563Z,18.06
2023-05-05T08:11:41.000Z,18.10
2023-05-05T08:12:40.937Z,18.15
2023-05-05T08:13:41.348Z,18.12
2023-05-05T08:14:41.078Z,18.09
2023-05-05T08:15:41.072Z,18.11
2023-05-05T08:16:41.131Z,18.14
2023-05-05T08:17:41.050Z,18.15
2023-05-05T08:18:40.771Z,18.20
2023-05-05T08:19:45.384Z,18.26
2023-05-05T08:20:40.810Z,18.34
2023-05-05T08:21:41.380Z,18.35
2023-05-05T08:22:40.634Z,18.34
2023-05-05T08:23:41.138Z,18.35
2023-05-05T08:24:40.602Z,18.37
2023-05-05T08:25:41.410Z,18.40
2023-05-05T08:27:40.764Z,18.45
2023-05-05T08:28:41.272Z,18.43
2023-05-05T08:29:40.542Z,18.44
2023-05-05T08:30:41.164Z,18.46
2023-05-05T08:31:40.395Z,18.46
2023-05-05T08:32:42.663Z,18.49
2023-05-05T08:33:40.255Z,18.51
2023-05-05T08:34:39.753Z,18.56
2023-05-05T08:35:40.352Z,18.57
2023-05-05T08:36:39.474Z,18.60
2023-05-05T08:37:39.668Z,18.60
2023-05-05T08:38:40.908Z,18.63
2023-05-05T08:39:40.040Z,18.70
2023-05-05T08:40:40.384Z,18.73
2023-05-05T08:41:40.076Z,18.74
2023-05-05T08:42:52.426Z,18.74
2023-05-05T08:43:40.104Z,18.78
2023-05-05T08:44:40.414Z,18.78
2023-05-05T08:45:40.894Z,18.79
2023-05-05T08:46:40.990Z,18.83
2023-05-05T08:47:40.643Z,18.92
2023-05-05T08:48:40.916Z,18.99
2023-05-05T08:49:41.116Z,19.01
2023-05-05T08:50:40.168Z,19.07
2023-05-05T08:51:40.360Z,19.07
2023-05-05T08:52:40.658Z,19.09
2023-05-05T08:53:40.429Z,19.05
2023-05-05T08:54:40.624Z,18.98
2023-05-05T08:55:41.129Z,18.93
2023-05-05T08:56:40.577Z,18.96
2023-05-05T08:57:40.736Z,19.05
2023-05-05T08:58:44.076Z,19.15
2023-05-05T08:59:40.846Z,19.19
2023-05-05T09:00:42.037Z,19.21
2023-05-05T09:01:45.851Z,19.25
2023-05-05T09:02:41.286Z,19.31
2023-05-05T09:03:41.013Z,19.28
2023-05-05T09:04:40.745Z,19.26
2023-05-05T09:05:41.429Z,19.29
2023-05-05T09:06:40.710Z,19.31
2023-05-05T09:07:41.209Z,19.34
2023-05-05T09:08:40.888Z,19.24
2023-05-05T09:09:41.210Z,19.18
2023-05-05T09:10:40.981Z,19.16
2023-05-05T09:11:49.166Z,19.19
2023-05-05T09:12:40.696Z,19.22
2023-05-05T09:13:49.209Z,19.28
2023-05-05T09:14:40.366Z,19.35
2023-05-05T09:15:40.900Z,19.42
2023-05-05T09:16:41.657Z,19.47
2023-05-05T09:17:41.747Z,19.49
2023-05-05T09:18:41.775Z,19.48
2023-05-05T09:19:55.306Z,19.39
2023-05-05T09:20:41.397Z,19.43
2023-05-05T09:21:40.952Z,19.55
2023-05-05T09:22:41.049Z,19.63
2023-05-05T09:23:40.455Z,19.60
2023-05-05T09:24:40.693Z,19.61
2023-05-05T09:25:41.670Z,19.61
2023-05-05T09:26:40.860Z,19.61
2023-05-05T09:27:41.770Z,19.53
2023-05-05T09:28:41.564Z,19.49
2023-05-05T09:29:41.378Z,19.40
2023-05-05T09:30:41.394Z,19.26
2023-05-05T09:31:41.472Z,19.24
2023-05-05T09:32:41.036Z,19.26
2023-05-05T09:33:40.730Z,19.29
2023-05-05T09:34:41.527Z,19.33
2023-05-05T09:35:41.510Z,19.33
2023-05-05T09:36:41.218Z,19.35
2023-05-05T09:37:46.204Z,19.40
2023-05-05T09:38:41.160Z,19.38
2023-05-05T09:39:46.146Z,19.38
2023-05-05T09:40:41.798Z,19.40
2023-05-05T09:42:07.377Z,19.38
2023-05-05T09:42:44.970Z,19.43
2023-05-05T09:44:05.629Z,19.42
2023-05-05T09:44:44.272Z,19.40
2023-05-05T09:45:41.834Z,19.38
2023-05-05T09:46:42.444Z,19.39
2023-05-05T09:48:14.481Z,19.46
2023-05-05T09:48:48.980Z,19.51
2023-05-05T09:49:42.758Z,19.54
2023-05-05T09:50:42.482Z,19.54
2023-05-05T09:51:41.626Z,19.56
2023-05-05T09:52:41.398Z,19.58
2023-05-05T09:53:41.237Z,19.65
2023-05-05T09:54:41.285Z,19.66
2023-05-05T09:55:42.056Z,19.66
2023-05-05T09:56:40.999Z,19.66
2023-05-05T09:57:41.245Z,19.67
2023-05-05T09:58:41.367Z,19.68
2023-05-05T09:59:40.887Z,19.67
2023-05-05T10:00:43.680Z,19.68
2023-05-05T10:01:55.509Z,19.71
2023-05-05T10:02:40.991Z,19.75
2023-05-05T10:03:40.453Z,19.78
2023-05-05T10:04:41.263Z,19.77
2023-05-05T10:05:41.002Z,19.79
2023-05-05T10:06:41.029Z,19.75
2023-05-05T10:07:40.794Z,19.67
2023-05-05T10:08:41.175Z,19.68
2023-05-05T10:09:40.720Z,19.74
2023-05-05T10:10:43.788Z,19.72
2023-05-05T10:11:41.299Z,19.71
2023-05-05T10:12:40.881Z,19.71
2023-05-05T10:13:41.593Z,19.72
2023-05-05T10:14:41.304Z,19.70
2023-05-05T10:15:41.776Z,19.70
2023-05-05T10:16:43.258Z,19.70
2023-05-05T10:17:44.047Z,19.71
2023-05-05T10:18:41.795Z,19.74
2023-05-05T10:19:41.178Z,19.76
2023-05-05T10:20:40.752Z,19.83
2023-05-05T10:21:42.160Z,19.88
2023-05-05T10:22:40.770Z,19.93
2023-05-05T10:23:41.402Z,19.89
2023-05-05T10:24:40.968Z,19.87
2023-05-05T10:25:41.427Z,19.86
2023-05-05T10:26:41.517Z,19.86
2023-05-05T10:27:41.111Z,19.87
2023-05-05T10:28:40.566Z,19.90
2023-05-05T10:29:41.428Z,19.94
2023-05-05T10:30:41.747Z,19.97
2023-05-05T10:31:42.969Z,19.98
2023-05-05T10:33:51.476Z,19.92
2023-05-05T10:34:41.217Z,19.90
2023-05-05T10:35:41.297Z,19.94
2023-05-05T10:36:41.002Z,19.92
2023-05-05T10:37:40.238Z,19.91
2023-05-05T10:38:42.959Z,19.91
2023-05-05T10:39:41.732Z,19.91
2023-05-05T10:40:42.289Z,19.93
2023-05-05T10:41:41.568Z,19.95
2023-05-05T10:42:41.428Z,19.99
2023-05-05T10:43:41.056Z,20.04
2023-05-05T10:44:41.379Z,20.07
2023-05-05T10:45:42.245Z,20.11
2023-05-05T10:46:41.827Z,20.15
2023-05-05T10:47:41.899Z,20.16
2023-05-05T10:48:42.018Z,20.19
2023-05-05T10:49:41.555Z,20.23
2023-05-05T10:50:40.480Z,20.28
2023-05-05T10:51:55.605Z,20.27
2023-05-05T10:52:39.658Z,20.17
2023-05-05T10:53:40.052Z,20.11
2023-05-05T10:54:40.003Z,20.09
2023-05-05T10:55:40.630Z,20.09
2023-05-05T10:56:40.334Z,20.11
2023-05-05T10:57:40.396Z,20.14
2023-05-05T10:58:51.158Z,20.21
2023-05-05T10:59:41.637Z,20.25
2023-05-05T11:00:42.669Z,20.26
2023-05-05T11:01:40.861Z,20.27
2023-05-05T11:02:41.270Z,20.28
2023-05-05T11:03:40.818Z,20.30
2023-05-05T11:04:41.047Z,20.32
2023-05-05T11:05:40.948Z,20.23
2023-05-05T11:06:41.513Z,20.04
2023-05-05T11:07:40.874Z,19.83
2023-05-05T11:08:41.213Z,19.69
2023-05-05T11:09:41.124Z,19.49
2023-05-05T11:10:41.007Z,19.34
2023-05-05T11:11:40.864Z,19.26
2023-05-05T11:12:41.568Z,19.15
2023-05-05T11:13:41.147Z,19.02
2023-05-05T11:14:40.823Z,18.97
2023-05-05T11:15:41.938Z,18.96
2023-05-05T11:16:41.989Z,18.89
2023-05-05T11:17:41.316Z,18.84
2023-05-05T11:18:41.398Z,18.73
2023-05-05T11:19:41.319Z,18.61
2023-05-05T11:20:41.212Z,18.49
2023-05-05T11:21:41.139Z,18.40
2023-05-05T11:22:41.231Z,18.30
2023-05-05T11:23:41.183Z,18.20
2023-05-05T11:24:41.121Z,18.14
2023-05-05T11:25:41.372Z,18.06
2023-05-05T11:26:41.505Z,18.05
2023-05-05T11:28:46.122Z,18.06
2023-05-05T11:29:41.915Z,18.04
2023-05-05T11:30:47.061Z,17.99
2023-05-05T11:31:41.439Z,18.00
2023-05-05T11:32:41.782Z,18.02
2023-05-05T11:33:41.673Z,18.02
2023-05-05T11:34:41.425Z,18.03
2023-05-05T11:35:41.544Z,17.98
2023-05-05T11:36:41.471Z,17.97
2023-05-05T11:37:41.404Z,18.00
2023-05-05T11:38:41.350Z,18.07
2023-05-05T11:39:41.423Z,18.07
2023-05-05T11:40:42.022Z,18.12
2023-05-05T11:41:41.382Z,18.12
2023-05-05T11:42:55.565Z,18.14
2023-05-05T11:43:41.701Z,18.14
2023-05-05T11:44:41.732Z,18.11
2023-05-05T11:45:41.822Z,18.08
2023-05-05T11:46:42.090Z,18.06
2023-05-05T11:47:41.331Z,18.03
2023-05-05T11:48:41.310Z,18.05
2023-05-05T11:49:41.937Z,18.07
2023-05-05T11:50:42.206Z,18.07
2023-05-05T11:51:41.811Z,18.08
2023-05-05T11:52:42.172Z,18.05
2023-05-05T11:53:41.491Z,18.00
2023-05-05T11:54:41.776Z,18.01
2023-05-05T11:55:41.768Z,18.04
2023-05-05T11:56:41.828Z,18.08
2023-05-05T11:57:42.512Z,18.10
2023-05-05T11:58:41.703Z,18.10
2023-05-05T11:59:41.846Z,18.12
2023-05-05T12:00:47.478Z,18.16
2023-05-05T12:01:41.939Z,18.20
2023-05-05T12:02:47.889Z,18.26
2023-05-05T12:03:43.015Z,18.31
2023-05-05T12:04:41.261Z,18.36
2023-05-05T12:05:41.882Z,18.42
2023-05-05T12:06:42.244Z,18.44
2023-05-05T12:07:41.180Z,18.48
2023-05-05T12:08:46.270Z,18.50
2023-05-05T12:09:41.249Z,18.54
2023-05-05T12:10:41.705Z,18.57
2023-05-05T12:11:41.294Z,18.56
2023-05-05T12:12:41.419Z,18.55
2023-05-05T12:13:41.233Z,18.55
2023-05-05T12:14:41.298Z,18.52
2023-05-05T12:15:41.538Z,18.49
2023-05-05T12:16:41.575Z,18.5
2023-05-05T12:17:41.408Z,18.53
2023-05-05T12:18:41.141Z,18.57
2023-05-05T12:19:41.249Z,18.60
2023-05-05T12:20:41.393Z,18.60
2023-05-05T12:21:41.164Z,18.61
2023-05-05T12:22:41.700Z,18.58
2023-05-05T12:23:41.568Z,18.60
2023-05-05T12:24:41.230Z,18.59
2023-05-05T12:25:41.285Z,18.61
2023-05-05T12:26:41.383Z,18.65
2023-05-05T12:27:41.228Z,18.65
2023-05-05T12:28:41.352Z,18.69
2023-05-05T12:29:41.823Z,18.75
2023-05-05T12:30:42.002Z,18.77
2023-05-05T12:31:41.974Z,18.76
2023-05-05T12:32:41.601Z,18.76
2023-05-05T12:33:41.526Z,18.77
2023-05-05T12:34:41.591Z,18.69
2023-05-05T12:35:41.985Z,18.70
2023-05-05T12:36:41.369Z,18.73
2023-05-05T12:37:41.678Z,18.77
2023-05-05T12:38:41.967Z,18.82
2023-05-05T12:39:42.538Z,18.80
2023-05-05T12:40:42.181Z,18.77
2023-05-05T12:41:41.076Z,18.77
2023-05-05T12:42:41.155Z,18.77
2023-05-05T12:43:41.037Z,18.78
2023-05-05T12:44:41.194Z,18.81
2023-05-05T12:45:41.325Z,18.79
2023-05-05T12:46:42.206Z,18.78
2023-05-05T12:47:41.057Z,18.75
2023-05-05T12:48:41.388Z,18.70
2023-05-05T12:49:41.135Z,18.72
2023-05-05T12:50:41.497Z,18.81
2023-05-05T12:51:41.012Z,18.84
2023-05-05T12:52:41.217Z,18.85
2023-05-05T12:53:41.333Z,18.86
2023-05-05T12:54:41.199Z,18.89
2023-05-05T12:55:41.705Z,18.89
2023-05-05T12:56:41.305Z,18.85